sensor_id;sensor_type;location;lat;lon;timestamp;pressure;altitude;pressure_sealevel;temperature;humidity
11349;BME280;5729;43.570;27.826;2023-03-22T00:01:46;98958.06;;;9.59;100.00
11349;BME280;5729;43.570;27.826;2023-03-22T00:04:11;98959.31;;;9.45;100.00
11349;BME280;5729;43.570;27.826;2023-03-22T00:06:37;98960.03;;;9.62;100.00
11349;BME280;5729;43.570;27.826;2023-03-22T00:09:03;98955.44;;;9.62;100.00
11349;BME280;5729;43.570;27.826;2023-03-22T00:11:28;98951.72;;;9.67;100.00
11349;BME280;5729;43.570;27.826;2023-03-22T00:13:54;98947.03;;;9.64;100.00
11349;BME280;5729;43.570;27.826;2023-03-22T00:16:20;98946.16;;;9.60;100.00
11349;BME280;5729;43.570;27.826;2023-03-22T00:18:45;98929.25;;;9.59;100.00
11349;BME280;5729;43.570;27.826;2023-03-22T00:21:14;98937.47;;;9.66;100.00
11349;BME280;5729;43.570;27.826;2023-03-22T00:23:41;98930.97;;;9.67;100.00
11349;BME280;5729;43.570;27.826;2023-03-22T00:26:08;98937.22;;;9.36;100.00
11349;BME280;5729;43.570;27.826;2023-03-22T00:28:35;98932.00;;;9.63;100.00
11349;BME280;5729;43.570;27.826;2023-03-22T00:31:02;98935.25;;;9.72;100.00
11349;BME280;5729;43.570;27.826;2023-03-22T00:33:29;98928.97;;;9.64;100.00
11349;BME280;5729;43.570;27.826;2023-03-22T00:36:00;98924.09;;;9.70;100.00
11349;BME280;5729;43.570;27.826;2023-03-22T00:38:28;98925.63;;;9.71;100.00
11349;BME280;5729;43.570;27.826;2023-03-22T00:41:09;98916.28;;;9.65;100.00
11349;BME280;5729;43.570;27.826;2023-03-22T00:43:36;98923.22;;;9.66;100.00
11349;BME280;5729;43.570;27.826;2023-03-22T00:46:01;98919.25;;;9.60;100.00
11349;BME280;5729;43.570;27.826;2023-03-22T00:48:27;98910.56;;;9.66;100.00
11349;BME280;5729;43.570;27.826;2023-03-22T00:50:53;98916.28;;;9.65;100.00
11349;BME280;5729;43.570;27.826;2023-03-22T00:53:18;98906.88;;;9.55;100.00
11349;BME280;5729;43.570;27.826;2023-03-22T00:55:44;98912.81;;;9.45;100.00
11349;BME280;5729;43.570;27.826;2023-03-22T00:58:09;98920.69;;;9.54;100.00
11349;BME280;5729;43.570;27.826;2023-03-22T01:00:34;98911.41;;;9.51;100.00
11349;BME280;5729;43.570;27.826;2023-03-22T01:03:00;98911.25;;;9.44;100.00
11349;BME280;5729;43.570;27.826;2023-03-22T01:05:33;98906.66;;;9.44;100.00
11349;BME280;5729;43.570;27.826;2023-03-22T01:08:03;98918.91;;;9.42;100.00
11349;BME280;5729;43.570;27.826;2023-03-22T01:10:37;98909.78;;;9.12;100.00
11349;BME280;5729;43.570;27.826;2023-03-22T01:13:04;98912.38;;;9.24;100.00
11349;BME280;5729;43.570;27.826;2023-03-22T01:15:30;98917.09;;;9.30;100.00
11349;BME280;5729;43.570;27.826;2023-03-22T01:17:56;98899.41;;;9.29;100.00
11349;BME280;5729;43.570;27.826;2023-03-22T01:20:22;98893.34;;;9.32;100.00
11349;BME280;5729;43.570;27.826;2023-03-22T01:22:48;98895.59;;;9.30;100.00
11349;BME280;5729;43.570;27.826;2023-03-22T01:25:13;98907.03;;;9.27;100.00
11349;BME280;5729;43.570;27.826;2023-03-22T01:27:39;98896.50;;;9.19;100.00
11349;BME280;5729;43.570;27.826;2023-03-22T01:30:05;98907.81;;;9.28;100.00
11349;BME280;5729;43.570;27.826;2023-03-22T01:32:31;98916.53;;;9.21;100.00
11349;BME280;5729;43.570;27.826;2023-03-22T01:34:57;98925.38;;;9.22;100.00
11349;BME280;5729;43.570;27.826;2023-03-22T01:37:23;98919.91;;;9.18;100.00
11349;BME280;5729;43.570;27.826;2023-03-22T01:39:52;98928.31;;;9.17;100.00
11349;BME280;5729;43.570;27.826;2023-03-22T01:42:19;98926.59;;;9.24;100.00
11349;BME280;5729;43.570;27.826;2023-03-22T01:47:59;98921.13;;;9.05;100.00
11349;BME280;5729;43.570;27.826;2023-03-22T01:50:26;98910.00;;;8.87;100.00
11349;BME280;5729;43.570;27.826;2023-03-22T01:52:52;98900.13;;;8.91;100.00
11349;BME280;5729;43.570;27.826;2023-03-22T01:55:20;98911.91;;;8.87;100.00
11349;BME280;5729;43.570;27.826;2023-03-22T01:57:47;98908.97;;;8.76;100.00
11349;BME280;5729;43.570;27.826;2023-03-22T02:00:13;98903.06;;;8.70;100.00
11349;BME280;5729;43.570;27.826;2023-03-22T02:02:43;98897.44;;;8.76;100.00
11349;BME280;5729;43.570;27.826;2023-03-22T02:05:11;98902.19;;;8.82;100.00
11349;BME280;5729;43.570;27.826;2023-03-22T02:07:38;98901.59;;;8.89;100.00
11349;BME280;5729;43.570;27.826;2023-03-22T02:10:20;98915.53;;;8.94;100.00
11349;BME280;5729;43.570;27.826;2023-03-22T02:15:44;98922.13;;;8.97;100.00
11349;BME280;5729;43.570;27.826;2023-03-22T02:29:09;98926.69;;;9.12;100.00
11349;BME280;5729;43.570;27.826;2023-03-22T02:34:28;98928.72;;;8.84;100.00
11349;BME280;5729;43.570;27.826;2023-03-22T02:42:43;98941.88;;;9.04;100.00
11349;BME280;5729;43.570;27.826;2023-03-22T02:48:04;98932.66;;;9.05;100.00
11349;BME280;5729;43.570;27.826;2023-03-22T02:51:04;98941.97;;;9.08;100.00
11349;BME280;5729;43.570;27.826;2023-03-22T02:53:41;98941.72;;;8.97;100.00
11349;BME280;5729;43.570;27.826;2023-03-22T02:56:21;98950.72;;;9.05;100.00
11349;BME280;5729;43.570;27.826;2023-03-22T02:58:52;98958.78;;;9.05;100.00
11349;BME280;5729;43.570;27.826;2023-03-22T03:01:27;98959.75;;;8.97;100.00
11349;BME280;5729;43.570;27.826;2023-03-22T03:03:58;98955.34;;;8.89;100.00
11349;BME280;5729;43.570;27.826;2023-03-22T03:06:28;98956.47;;;8.88;100.00
11349;BME280;5729;43.570;27.826;2023-03-22T03:08:57;98954.63;;;8.92;100.00
11349;BME280;5729;43.570;27.826;2023-03-22T03:11:27;98954.22;;;8.90;100.00
11349;BME280;5729;43.570;27.826;2023-03-22T03:13:52;98956.28;;;8.81;100.00
11349;BME280;5729;43.570;27.826;2023-03-22T03:16:23;98950.47;;;8.94;100.00
11349;BME280;5729;43.570;27.826;2023-03-22T03:19:02;98952.47;;;9.13;100.00
11349;BME280;5729;43.570;27.826;2023-03-22T03:21:54;98950.25;;;9.19;100.00
11349;BME280;5729;43.570;27.826;2023-03-22T03:26:53;98958.41;;;9.22;100.00
11349;BME280;5729;43.570;27.826;2023-03-22T03:37:19;98953.50;;;9.08;100.00
11349;BME280;5729;43.570;27.826;2023-03-22T03:39:59;98951.25;;;9.10;100.00
11349;BME280;5729;43.570;27.826;2023-03-22T03:42:29;98955.94;;;9.14;100.00
11349;BME280;5729;43.570;27.826;2023-03-22T03:44:55;98963.28;;;9.17;100.00
11349;BME280;5729;43.570;27.826;2023-03-22T03:47:22;98946.28;;;9.13;100.00
11349;BME280;5729;43.570;27.826;2023-03-22T03:49:49;98953.38;;;9.21;100.00
11349;BME280;5729;43.570;27.826;2023-03-22T03:52:14;98957.53;;;9.18;100.00
11349;BME280;5729;43.570;27.826;2023-03-22T03:54:40;98954.25;;;9.25;100.00
11349;BME280;5729;43.570;27.826;2023-03-22T03:57:05;98951.94;;;9.07;100.00
11349;BME280;5729;43.570;27.826;2023-03-22T03:59:31;98956.84;;;9.21;100.00
11349;BME280;5729;43.570;27.826;2023-03-22T04:01:56;98959.25;;;9.26;100.00
11349;BME280;5729;43.570;27.826;2023-03-22T04:04:26;98967.75;;;9.28;100.00
11349;BME280;5729;43.570;27.826;2023-03-22T04:06:53;98966.97;;;9.28;100.00
11349;BME280;5729;43.570;27.826;2023-03-22T04:09:24;98972.38;;;9.28;100.00
11349;BME280;5729;43.570;27.826;2023-03-22T04:11:52;98971.31;;;9.32;100.00
11349;BME280;5729;43.570;27.826;2023-03-22T04:14:17;98957.53;;;9.18;100.00
11349;BME280;5729;43.570;27.826;2023-03-22T04:16:44;98972.53;;;9.35;100.00
11349;BME280;5729;43.570;27.826;2023-03-22T04:19:09;98962.72;;;9.42;100.00
11349;BME280;5729;43.570;27.826;2023-03-22T04:21:35;98974.16;;;9.39;100.00
11349;BME280;5729;43.570;27.826;2023-03-22T04:24:01;98973.38;;;9.39;100.00
11349;BME280;5729;43.570;27.826;2023-03-22T04:26:26;98978.25;;;9.33;100.00
11349;BME280;5729;43.570;27.826;2023-03-22T04:28:52;98980.66;;;9.38;100.00
11349;BME280;5729;43.570;27.826;2023-03-22T04:31:17;98972.25;;;9.40;100.00
11349;BME280;5729;43.570;27.826;2023-03-22T04:33:43;98975.91;;;9.32;100.00
11349;BME280;5729;43.570;27.826;2023-03-22T04:36:12;98976.03;;;9.20;100.00
11349;BME280;5729;43.570;27.826;2023-03-22T04:38:42;98989.91;;;9.22;100.00
11349;BME280;5729;43.570;27.826;2023-03-22T04:41:08;98988.97;;;9.14;100.00
11349;BME280;5729;43.570;27.826;2023-03-22T04:43:34;98990.09;;;9.13;100.00
11349;BME280;5729;43.570;27.826;2023-03-22T04:46:06;98988.59;;;9.16;100.00
11349;BME280;5729;43.570;27.826;2023-03-22T04:48:37;98981.94;;;9.09;100.00
11349;BME280;5729;43.570;27.826;2023-03-22T04:51:05;98984.28;;;9.11;100.00
11349;BME280;5729;43.570;27.826;2023-03-22T04:53:31;98996.75;;;9.19;100.00
11349;BME280;5729;43.570;27.826;2023-03-22T04:55:57;98996.75;;;9.19;100.00
11349;BME280;5729;43.570;27.826;2023-03-22T04:58:23;99006.38;;;9.20;100.00
11349;BME280;5729;43.570;27.826;2023-03-22T05:00:50;99009.75;;;9.17;100.00
11349;BME280;5729;43.570;27.826;2023-03-22T05:03:19;99005.16;;;9.18;100.00
11349;BME280;5729;43.570;27.826;2023-03-22T05:05:58;99004.03;;;9.19;100.00
11349;BME280;5729;43.570;27.826;2023-03-22T05:08:26;99013.03;;;9.26;100.00
11349;BME280;5729;43.570;27.826;2023-03-22T05:10:53;99021.66;;;9.32;100.00
11349;BME280;5729;43.570;27.826;2023-03-22T05:13:20;99025.56;;;9.19;100.00
11349;BME280;5729;43.570;27.826;2023-03-22T05:15:47;99028.16;;;9.15;100.00
11349;BME280;5729;43.570;27.826;2023-03-22T05:18:19;99013.91;;;9.15;100.00
11349;BME280;5729;43.570;27.826;2023-03-22T05:20:46;99025.75;;;9.10;100.00
11349;BME280;5729;43.570;27.826;2023-03-22T05:23:13;99024.09;;;8.90;100.00
11349;BME280;5729;43.570;27.826;2023-03-22T05:25:44;99027.53;;;9.06;100.00
11349;BME280;5729;43.570;27.826;2023-03-22T05:28:12;99030.25;;;8.90;100.00
11349;BME280;5729;43.570;27.826;2023-03-22T05:30:39;99028.94;;;9.00;100.00
11349;BME280;5729;43.570;27.826;2023-03-22T05:33:06;99029.91;;;9.07;100.00
11349;BME280;5729;43.570;27.826;2023-03-22T05:35:36;99022.00;;;8.99;100.00
11349;BME280;5729;43.570;27.826;2023-03-22T05:38:03;99018.00;;;8.77;100.00
11349;BME280;5729;43.570;27.826;2023-03-22T05:40:29;99038.47;;;8.97;100.00
11349;BME280;5729;43.570;27.826;2023-03-22T05:42:55;99037.28;;;9.10;100.00
11349;BME280;5729;43.570;27.826;2023-03-22T05:45:21;99041.88;;;9.10;100.00
11349;BME280;5729;43.570;27.826;2023-03-22T05:47:47;99040.41;;;9.13;100.00
11349;BME280;5729;43.570;27.826;2023-03-22T05:50:18;99045.59;;;9.21;100.00
11349;BME280;5729;43.570;27.826;2023-03-22T05:52:44;99051.16;;;9.13;100.00
11349;BME280;5729;43.570;27.826;2023-03-22T05:55:14;99049.16;;;9.09;100.00
11349;BME280;5729;43.570;27.826;2023-03-22T05:57:42;99052.34;;;9.15;100.00
11349;BME280;5729;43.570;27.826;2023-03-22T06:00:10;99046.28;;;9.18;100.00
11349;BME280;5729;43.570;27.826;2023-03-22T06:02:44;99051.31;;;9.20;100.00
11349;BME280;5729;43.570;27.826;2023-03-22T06:05:11;99049.06;;;9.22;100.00
11349;BME280;5729;43.570;27.826;2023-03-22T06:07:38;99060.50;;;9.19;100.00
11349;BME280;5729;43.570;27.826;2023-03-22T06:10:06;99050.28;;;9.08;100.00
11349;BME280;5729;43.570;27.826;2023-03-22T06:12:32;99066.31;;;9.05;100.00
11349;BME280;5729;43.570;27.826;2023-03-22T06:14:58;99067.00;;;9.18;100.00
11349;BME280;5729;43.570;27.826;2023-03-22T06:17:23;99068.56;;;9.19;100.00
11349;BME280;5729;43.570;27.826;2023-03-22T06:19:50;99065.72;;;9.12;100.00
11349;BME280;5729;43.570;27.826;2023-03-22T06:22:16;99058.00;;;9.10;100.00
11349;BME280;5729;43.570;27.826;2023-03-22T06:24:41;99063.47;;;9.14;100.00
11349;BME280;5729;43.570;27.826;2023-03-22T06:27:07;99062.69;;;9.13;100.00
11349;BME280;5729;43.570;27.826;2023-03-22T06:29:33;99071.16;;;9.15;100.00
11349;BME280;5729;43.570;27.826;2023-03-22T06:31:59;99069.63;;;9.14;100.00
11349;BME280;5729;43.570;27.826;2023-03-22T06:34:25;99072.47;;;9.05;100.00
11349;BME280;5729;43.570;27.826;2023-03-22T06:36:51;99077.69;;;8.98;100.00
11349;BME280;5729;43.570;27.826;2023-03-22T06:39:17;99076.38;;;9.08;100.00
11349;BME280;5729;43.570;27.826;2023-03-22T06:41:43;99079.84;;;9.08;100.00
11349;BME280;5729;43.570;27.826;2023-03-22T06:44:09;99086.25;;;9.04;100.00
11349;BME280;5729;43.570;27.826;2023-03-22T06:46:34;99083.06;;;9.14;100.00
11349;BME280;5729;43.570;27.826;2023-03-22T06:49:00;99093.47;;;9.31;100.00
11349;BME280;5729;43.570;27.826;2023-03-22T06:51:25;99095.97;;;9.40;100.00
11349;BME280;5729;43.570;27.826;2023-03-22T06:53:51;99098.69;;;9.24;100.00
11349;BME280;5729;43.570;27.826;2023-03-22T06:56:16;99102.41;;;9.20;100.00
11349;BME280;5729;43.570;27.826;2023-03-22T06:58:42;99090.34;;;9.14;100.00
11349;BME280;5729;43.570;27.826;2023-03-22T07:01:07;99103.34;;;9.27;100.00
11349;BME280;5729;43.570;27.826;2023-03-22T07:03:32;99110.75;;;9.30;100.00
11349;BME280;5729;43.570;27.826;2023-03-22T07:06:02;99111.88;;;9.45;100.00
11349;BME280;5729;43.570;27.826;2023-03-22T07:08:27;99108.47;;;9.48;100.00
11349;BME280;5729;43.570;27.826;2023-03-22T07:10:53;99121.56;;;9.50;100.00
11349;BME280;5729;43.570;27.826;2023-03-22T07:13:18;99113.16;;;9.51;100.00
11349;BME280;5729;43.570;27.826;2023-03-22T07:15:44;99112.47;;;9.54;100.00
11349;BME280;5729;43.570;27.826;2023-03-22T07:18:09;99115.75;;;9.63;100.00
11349;BME280;5729;43.570;27.826;2023-03-22T07:20:35;99116.38;;;9.57;100.00
11349;BME280;5729;43.570;27.826;2023-03-22T07:23:06;99116.19;;;9.50;100.00
11349;BME280;5729;43.570;27.826;2023-03-22T07:25:32;99114.53;;;9.61;100.00
11349;BME280;5729;43.570;27.826;2023-03-22T07:27:59;99122.38;;;9.66;100.00
11349;BME280;5729;43.570;27.826;2023-03-22T07:30:25;99126.09;;;9.77;100.00
11349;BME280;5729;43.570;27.826;2023-03-22T07:32:50;99124.19;;;9.77;100.00
11349;BME280;5729;43.570;27.826;2023-03-22T07:35:16;99127.38;;;9.83;100.00
11349;BME280;5729;43.570;27.826;2023-03-22T07:37:43;99119.34;;;9.67;100.00
11349;BME280;5729;43.570;27.826;2023-03-22T07:40:09;99126.25;;;9.84;100.00
11349;BME280;5729;43.570;27.826;2023-03-22T07:42:35;99125.13;;;9.85;100.00
11349;BME280;5729;43.570;27.826;2023-03-22T07:45:00;99127.69;;;9.97;100.00
11349;BME280;5729;43.570;27.826;2023-03-22T07:47:26;99129.16;;;9.95;100.00
11349;BME280;5729;43.570;27.826;2023-03-22T07:49:51;99127.69;;;9.97;100.00
11349;BME280;5729;43.570;27.826;2023-03-22T07:52:17;99129.16;;;9.95;100.00
11349;BME280;5729;43.570;27.826;2023-03-22T07:54:43;99134.50;;;9.91;100.00
11349;BME280;5729;43.570;27.826;2023-03-22T07:57:08;99132.53;;;10.07;100.00
11349;BME280;5729;43.570;27.826;2023-03-22T07:59:34;99135.78;;;9.97;100.00
11349;BME280;5729;43.570;27.826;2023-03-22T08:01:59;99130.94;;;9.87;100.00
11349;BME280;5729;43.570;27.826;2023-03-22T08:04:25;99138.72;;;10.08;100.00
11349;BME280;5729;43.570;27.826;2023-03-22T08:06:51;99142.09;;;10.21;100.00
11349;BME280;5729;43.570;27.826;2023-03-22T08:09:19;99136.50;;;10.29;100.00
11349;BME280;5729;43.570;27.826;2023-03-22T08:11:44;99134.44;;;10.23;100.00
11349;BME280;5729;43.570;27.826;2023-03-22T08:14:09;99139.97;;;10.30;100.00
11349;BME280;5729;43.570;27.826;2023-03-22T08:16:35;99131.63;;;10.35;100.00
11349;BME280;5729;43.570;27.826;2023-03-22T08:19:02;99131.78;;;10.42;100.00
11349;BME280;5729;43.570;27.826;2023-03-22T08:21:27;99139.72;;;10.54;100.00
11349;BME280;5729;43.570;27.826;2023-03-22T08:23:53;99136.25;;;10.53;100.00
11349;BME280;5729;43.570;27.826;2023-03-22T08:26:18;99124.19;;;10.67;100.00
11349;BME280;5729;43.570;27.826;2023-03-22T08:28:44;99127.78;;;10.74;100.00
11349;BME280;5729;43.570;27.826;2023-03-22T08:31:14;99135.03;;;10.89;100.00
11349;BME280;5729;43.570;27.826;2023-03-22T08:33:40;99116.16;;;10.89;100.00
11349;BME280;5729;43.570;27.826;2023-03-22T08:36:07;99116.16;;;10.89;100.00
11349;BME280;5729;43.570;27.826;2023-03-22T08:38:33;99122.75;;;10.92;100.00
11349;BME280;5729;43.570;27.826;2023-03-22T08:40:59;99131.47;;;11.05;100.00
11349;BME280;5729;43.570;27.826;2023-03-22T08:43:24;99121.13;;;10.87;100.00
11349;BME280;5729;43.570;27.826;2023-03-22T08:45:50;99123.84;;;10.68;100.00
11349;BME280;5729;43.570;27.826;2023-03-22T08:48:15;99133.34;;;10.81;100.00
11349;BME280;5729;43.570;27.826;2023-03-22T08:50:40;99125.97;;;10.78;100.00
11349;BME280;5729;43.570;27.826;2023-03-22T08:53:06;99136.28;;;10.96;100.00
11349;BME280;5729;43.570;27.826;2023-03-22T08:55:31;99134.72;;;11.14;100.00
11349;BME280;5729;43.570;27.826;2023-03-22T08:58:00;99134.06;;;11.43;100.00
11349;BME280;5729;43.570;27.826;2023-03-22T09:00:25;99134.91;;;11.47;100.00
11349;BME280;5729;43.570;27.826;2023-03-22T09:02:51;99139.81;;;11.64;100.00
11349;BME280;5729;43.570;27.826;2023-03-22T09:05:17;99132.81;;;11.83;100.00
11349;BME280;5729;43.570;27.826;2023-03-22T09:07:43;99131.59;;;11.80;100.00
11349;BME280;5729;43.570;27.826;2023-03-22T09:10:08;99135.94;;;11.85;100.00
11349;BME280;5729;43.570;27.826;2023-03-22T09:12:34;99131.84;;;11.98;100.00
11349;BME280;5729;43.570;27.826;2023-03-22T09:15:00;99133.63;;;11.64;100.00
11349;BME280;5729;43.570;27.826;2023-03-22T09:17:26;99141.38;;;11.65;100.00
11349;BME280;5729;43.570;27.826;2023-03-22T09:19:51;99137.72;;;11.54;100.00
11349;BME280;5729;43.570;27.826;2023-03-22T09:22:17;99144.03;;;11.62;100.00
11349;BME280;5729;43.570;27.826;2023-03-22T09:24:42;99140.59;;;11.42;100.00
11349;BME280;5729;43.570;27.826;2023-03-22T09:27:08;99144.38;;;11.38;100.00
11349;BME280;5729;43.570;27.826;2023-03-22T09:29:33;99148.81;;;11.72;100.00
11349;BME280;5729;43.570;27.826;2023-03-22T09:31:59;99152.50;;;11.83;100.00
11349;BME280;5729;43.570;27.826;2023-03-22T09:34:24;99158.84;;;11.94;100.00
11349;BME280;5729;43.570;27.826;2023-03-22T09:36:50;99156.84;;;11.91;100.00
11349;BME280;5729;43.570;27.826;2023-03-22T09:39:17;99159.47;;;11.84;100.00
11349;BME280;5729;43.570;27.826;2023-03-22T09:41:46;99157.56;;;11.88;100.00
11349;BME280;5729;43.570;27.826;2023-03-22T09:44:19;99158.19;;;11.78;100.00
11349;BME280;5729;43.570;27.826;2023-03-22T09:46:49;99156.94;;;11.49;100.00
11349;BME280;5729;43.570;27.826;2023-03-22T09:49:23;99158.94;;;11.56;100.00
11349;BME280;5729;43.570;27.826;2023-03-22T09:51:51;99167.91;;;11.37;100.00
11349;BME280;5729;43.570;27.826;2023-03-22T09:54:25;99160.09;;;11.55;100.00
11349;BME280;5729;43.570;27.826;2023-03-22T09:56:57;99161.41;;;11.42;100.00
11349;BME280;5729;43.570;27.826;2023-03-22T09:59:49;99162.25;;;11.69;100.00
11349;BME280;5729;43.570;27.826;2023-03-22T10:10:22;99158.66;;;11.38;100.00
11349;BME280;5729;43.570;27.826;2023-03-22T10:15:49;99161.72;;;11.17;100.00
11349;BME280;5729;43.570;27.826;2023-03-22T10:21:00;99168.84;;;11.25;100.00
11349;BME280;5729;43.570;27.826;2023-03-22T10:23:49;99171.50;;;11.03;100.00
11349;BME280;5729;43.570;27.826;2023-03-22T10:26:37;99172.66;;;10.82;100.00
11349;BME280;5729;43.570;27.826;2023-03-22T10:29:28;99168.53;;;10.88;100.00
11349;BME280;5729;43.570;27.826;2023-03-22T10:31:57;99173.06;;;10.84;100.00
11349;BME280;5729;43.570;27.826;2023-03-22T10:34:28;99176.53;;;10.85;100.00
11349;BME280;5729;43.570;27.826;2023-03-22T10:37:00;99168.16;;;10.51;100.00
11349;BME280;5729;43.570;27.826;2023-03-22T10:39:35;99166.66;;;10.54;100.00
11349;BME280;5729;43.570;27.826;2023-03-22T10:42:06;99168.50;;;10.50;100.00
11349;BME280;5729;43.570;27.826;2023-03-22T10:44:42;99171.72;;;10.55;100.00
11349;BME280;5729;43.570;27.826;2023-03-22T10:47:09;99165.09;;;10.53;100.00
11349;BME280;5729;43.570;27.826;2023-03-22T10:49:43;99171.59;;;10.33;100.00
11349;BME280;5729;43.570;27.826;2023-03-22T10:52:19;99179.28;;;10.50;100.00
11349;BME280;5729;43.570;27.826;2023-03-22T10:54:47;99169.88;;;10.60;100.00
11349;BME280;5729;43.570;27.826;2023-03-22T10:57:13;99172.50;;;10.56;100.00
11349;BME280;5729;43.570;27.826;2023-03-22T10:59:44;99167.00;;;10.33;100.00
11349;BME280;5729;43.570;27.826;2023-03-22T11:02:20;99178.66;;;10.37;100.00
11349;BME280;5729;43.570;27.826;2023-03-22T11:04:51;99168.16;;;10.51;100.00
11349;BME280;5729;43.570;27.826;2023-03-22T11:07:38;99169.78;;;10.56;100.00
11349;BME280;5729;43.570;27.826;2023-03-22T11:12:32;99177.19;;;10.59;100.00
11349;BME280;5729;43.570;27.826;2023-03-22T11:15:02;99171.84;;;10.63;100.00
11349;BME280;5729;43.570;27.826;2023-03-22T11:17:28;99172.06;;;10.54;100.00
11349;BME280;5729;43.570;27.826;2023-03-22T11:19:59;99176.22;;;10.51;100.00
11349;BME280;5729;43.570;27.826;2023-03-22T11:22:33;99167.81;;;10.53;100.00
11349;BME280;5729;43.570;27.826;2023-03-22T11:25:01;99170.19;;;10.39;100.00
11349;BME280;5729;43.570;27.826;2023-03-22T11:27:32;99175.16;;;10.37;100.00
11349;BME280;5729;43.570;27.826;2023-03-22T11:30:07;99171.56;;;10.48;100.00
11349;BME280;5729;43.570;27.826;2023-03-22T11:32:37;99168.50;;;10.50;100.00
11349;BME280;5729;43.570;27.826;2023-03-22T11:35:16;99170.66;;;10.60;100.00
11349;BME280;5729;43.570;27.826;2023-03-22T11:37:47;99170.06;;;10.51;100.00
11349;BME280;5729;43.570;27.826;2023-03-22T11:40:18;99168.00;;;10.44;100.00
11349;BME280;5729;43.570;27.826;2023-03-22T11:45:35;99164.19;;;10.65;100.00
11349;BME280;5729;43.570;27.826;2023-03-22T11:48:07;99165.09;;;10.53;100.00
11349;BME280;5729;43.570;27.826;2023-03-22T11:50:36;99161.41;;;10.61;100.00
11349;BME280;5729;43.570;27.826;2023-03-22T11:53:09;99161.28;;;10.54;100.00
11349;BME280;5729;43.570;27.826;2023-03-22T11:55:36;99150.38;;;10.47;100.00
11349;BME280;5729;43.570;27.826;2023-03-22T11:58:03;99162.72;;;10.48;100.00
11349;BME280;5729;43.570;27.826;2023-03-22T12:00:31;99144.53;;;10.45;100.00
11349;BME280;5729;43.570;27.826;2023-03-22T12:03:08;99157.75;;;10.69;100.00
11349;BME280;5729;43.570;27.826;2023-03-22T12:05:39;99157.81;;;10.73;100.00
11349;BME280;5729;43.570;27.826;2023-03-22T12:08:26;99150.78;;;10.68;100.00
11349;BME280;5729;43.570;27.826;2023-03-22T12:11:03;99160.09;;;10.90;100.00
11349;BME280;5729;43.570;27.826;2023-03-22T12:13:37;99151.50;;;10.84;100.00
11349;BME280;5729;43.570;27.826;2023-03-22T12:16:04;99145.25;;;10.61;100.00
11349;BME280;5729;43.570;27.826;2023-03-22T12:21:21;99157.66;;;10.85;100.00
11349;BME280;5729;43.570;27.826;2023-03-22T12:23:47;99157.44;;;10.74;100.00
11349;BME280;5729;43.570;27.826;2023-03-22T12:26:20;99150.56;;;10.77;100.00
11349;BME280;5729;43.570;27.826;2023-03-22T12:28:55;99148.78;;;10.84;100.00
11349;BME280;5729;43.570;27.826;2023-03-22T12:34:07;99148.44;;;10.86;100.00
11349;BME280;5729;43.570;27.826;2023-03-22T12:36:47;99151.09;;;10.82;100.00
11349;BME280;5729;43.570;27.826;2023-03-22T12:42:30;99143.91;;;10.71;100.00
11349;BME280;5729;43.570;27.826;2023-03-22T12:45:02;99134.69;;;10.72;100.00
11349;BME280;5729;43.570;27.826;2023-03-22T12:47:34;99141.84;;;10.64;100.00
11349;BME280;5729;43.570;27.826;2023-03-22T12:50:20;99147.03;;;10.73;100.00
11349;BME280;5729;43.570;27.826;2023-03-22T12:52:49;99139.09;;;10.80;100.00
11349;BME280;5729;43.570;27.826;2023-03-22T12:57:43;99145.53;;;10.95;100.00
11349;BME280;5729;43.570;27.826;2023-03-22T13:00:13;99143.59;;;10.95;100.00
11349;BME280;5729;43.570;27.826;2023-03-22T13:02:47;99131.28;;;10.94;100.00
11349;BME280;5729;43.570;27.826;2023-03-22T13:05:16;99148.63;;;10.97;100.00
11349;BME280;5729;43.570;27.826;2023-03-22T13:26:48;99132.72;;;10.69;100.00
11349;BME280;5729;43.570;27.826;2023-03-22T13:29:32;99135.25;;;10.62;100.00
11349;BME280;5729;43.570;27.826;2023-03-22T13:32:03;99122.34;;;10.51;100.00
11349;BME280;5729;43.570;27.826;2023-03-22T13:34:37;99126.69;;;10.56;100.00
11349;BME280;5729;43.570;27.826;2023-03-22T13:37:16;99126.13;;;10.47;100.00
11349;BME280;5729;43.570;27.826;2023-03-22T13:39:50;99122.56;;;10.43;100.00
11349;BME280;5729;43.570;27.826;2023-03-22T13:42:20;99125.81;;;10.33;100.00
11349;BME280;5729;43.570;27.826;2023-03-22T13:44:54;99124.38;;;10.39;100.00
11349;BME280;5729;43.570;27.826;2023-03-22T13:50:08;99120.69;;;10.28;100.00
11349;BME280;5729;43.570;27.826;2023-03-22T13:52:50;99117.59;;;10.45;100.00
11349;BME280;5729;43.570;27.826;2023-03-22T13:58:02;99122.84;;;10.57;100.00
11349;BME280;5729;43.570;27.826;2023-03-22T14:02:57;99125.19;;;10.59;100.00
11349;BME280;5729;43.570;27.826;2023-03-22T14:05:25;99119.88;;;10.43;100.00
11349;BME280;5729;43.570;27.826;2023-03-22T14:07:55;99119.78;;;10.39;100.00
11349;BME280;5729;43.570;27.826;2023-03-22T14:10:30;99119.44;;;10.41;100.00
11349;BME280;5729;43.570;27.826;2023-03-22T14:13:03;99118.25;;;10.58;100.00
11349;BME280;5729;43.570;27.826;2023-03-22T14:15:40;99117.50;;;10.41;100.00
11349;BME280;5729;43.570;27.826;2023-03-22T14:18:29;99114.63;;;10.69;100.00
11349;BME280;5729;43.570;27.826;2023-03-22T14:21:00;99124.03;;;10.79;100.00
11349;BME280;5729;43.570;27.826;2023-03-22T14:23:35;99123.91;;;10.72;100.00
11349;BME280;5729;43.570;27.826;2023-03-22T14:28:39;99104.13;;;10.83;100.00
11349;BME280;5729;43.570;27.826;2023-03-22T14:31:25;99105.13;;;10.98;100.00
11349;BME280;5729;43.570;27.826;2023-03-22T14:33:53;99108.19;;;10.97;100.00
11349;BME280;5729;43.570;27.826;2023-03-22T14:36:19;99113.59;;;10.97;100.00
11349;BME280;5729;43.570;27.826;2023-03-22T14:38:48;99099.28;;;10.93;100.00
11349;BME280;5729;43.570;27.826;2023-03-22T14:43:44;99111.94;;;11.11;100.00
11349;BME280;5729;43.570;27.826;2023-03-22T14:46:18;99114.88;;;11.03;100.00